createdAt,value
2018-12-21T00:00:47.728Z,1003.91
2018-12-21T00:01:47.717Z,1003.92
2018-12-21T00:02:47.711Z,1003.95
2018-12-21T00:03:47.701Z,1003.96
2018-12-21T00:04:47.695Z,1003.93
2018-12-21T00:05:47.683Z,1003.89
2018-12-21T00:06:47.677Z,1003.90
2018-12-21T00:07:47.672Z,1003.92
2018-12-21T00:08:47.662Z,1003.96
2018-12-21T00:09:47.651Z,1003.89
2018-12-21T00:10:47.643Z,1003.91
2018-12-21T00:11:47.636Z,1003.88
2018-12-21T00:12:47.627Z,1003.88
2018-12-21T00:13:47.618Z,1003.80
2018-12-21T00:14:47.607Z,1003.90
2018-12-21T00:15:47.601Z,1003.83
2018-12-21T00:16:47.591Z,1003.85
2018-12-21T00:17:47.583Z,1003.81
2018-12-21T00:18:47.574Z,1003.80
2018-12-21T00:19:47.567Z,1003.78
2018-12-21T00:20:47.556Z,1003.77
2018-12-21T00:21:47.850Z,1003.71
2018-12-21T00:22:47.542Z,1003.68
2018-12-21T00:23:47.533Z,1003.65
2018-12-21T00:24:47.522Z,1003.64
2018-12-21T00:25:47.528Z,1003.64
2018-12-21T00:26:47.505Z,1003.67
2018-12-21T00:27:47.499Z,1003.68
2018-12-21T00:28:47.489Z,1003.63
2018-12-21T00:29:47.488Z,1003.66
2018-12-21T00:30:47.472Z,1003.68
2018-12-21T00:31:47.466Z,1003.68
2018-12-21T00:32:47.456Z,1003.70
2018-12-21T00:33:47.449Z,1003.65
2018-12-21T00:34:47.438Z,1003.64
2018-12-21T00:35:47.433Z,1003.65
2018-12-21T00:36:47.424Z,1003.61
2018-12-21T00:37:47.419Z,1003.63
2018-12-21T00:38:47.406Z,1003.62
2018-12-21T00:39:47.400Z,1003.61
2018-12-21T00:40:47.392Z,1003.61
2018-12-21T00:41:47.382Z,1003.63
2018-12-21T00:42:47.373Z,1003.63
2018-12-21T00:43:47.366Z,1003.65
2018-12-21T00:44:47.355Z,1003.66
2018-12-21T00:45:47.355Z,1003.60
2018-12-21T00:46:47.353Z,1003.64
2018-12-21T00:47:47.419Z,1003.60
2018-12-21T00:48:47.322Z,1003.64
2018-12-21T00:49:47.315Z,1003.61
2018-12-21T00:50:47.305Z,1003.60
2018-12-21T00:51:47.600Z,1003.50
2018-12-21T00:52:47.300Z,1003.57
2018-12-21T00:53:47.286Z,1003.52
2018-12-21T00:54:47.272Z,1003.43
2018-12-21T00:55:47.267Z,1003.41
2018-12-21T00:56:47.256Z,1003.45
2018-12-21T00:57:47.250Z,1003.42
2018-12-21T00:58:47.239Z,1003.45
2018-12-21T00:59:47.233Z,1003.40
2018-12-21T01:00:47.223Z,1003.34
2018-12-21T01:01:47.217Z,1003.32
2018-12-21T01:02:47.207Z,1003.32
2018-12-21T01:03:47.206Z,1003.27
2018-12-21T01:04:47.190Z,1003.31
2018-12-21T01:05:47.183Z,1003.30
2018-12-21T01:06:47.176Z,1003.25
2018-12-21T01:07:47.168Z,1003.21
2018-12-21T01:08:47.158Z,1003.24
2018-12-21T01:09:47.151Z,1003.25
2018-12-21T01:10:47.144Z,1003.26
2018-12-21T01:11:47.135Z,1003.28
2018-12-21T01:12:47.140Z,1003.26
2018-12-21T01:13:47.119Z,1003.23
2018-12-21T01:14:47.108Z,1003.24
2018-12-21T01:15:47.105Z,1003.23
2018-12-21T01:16:47.093Z,1003.28
2018-12-21T01:17:47.086Z,1003.27
2018-12-21T01:18:47.076Z,1003.22
2018-12-21T01:19:47.071Z,1003.25
2018-12-21T01:20:47.061Z,1003.27
2018-12-21T01:21:47.053Z,1003.25
2018-12-21T01:22:47.344Z,1003.27
2018-12-21T01:23:47.038Z,1003.25
2018-12-21T01:24:47.027Z,1003.29
2018-12-21T01:25:47.021Z,1003.31
2018-12-21T01:26:47.013Z,1003.27
2018-12-21T01:27:47.006Z,1003.29
2018-12-21T01:28:46.996Z,1003.27
2018-12-21T01:29:46.989Z,1003.27
2018-12-21T01:30:46.979Z,1003.22
2018-12-21T01:31:46.973Z,1003.13
2018-12-21T01:32:46.966Z,1003.21
2018-12-21T01:33:46.957Z,1003.20
2018-12-21T01:34:46.947Z,1003.21
2018-12-21T01:35:46.942Z,1003.16
2018-12-21T01:36:46.932Z,1003.23
2018-12-21T01:37:46.925Z,1003.18
2018-12-21T01:38:46.915Z,1003.14
2018-12-21T01:39:46.910Z,1003.11
2018-12-21T01:40:46.900Z,1003.17
2018-12-21T01:41:46.895Z,1003.17
2018-12-21T01:42:46.885Z,1003.13
2018-12-21T01:43:46.878Z,1003.17
2018-12-21T01:44:46.870Z,1003.09
2018-12-21T01:45:46.862Z,1003.08
2018-12-21T01:46:46.852Z,1003.03
2018-12-21T01:47:46.847Z,1003.04
2018-12-21T01:48:46.837Z,1003.00
2018-12-21T01:49:46.831Z,1002.99
2018-12-21T01:50:46.821Z,1002.97
2018-12-21T01:51:47.442Z,1003.00
2018-12-21T01:52:46.908Z,1002.99
2018-12-21T01:53:46.800Z,1002.92
2018-12-21T01:54:46.794Z,1002.96
2018-12-21T01:55:46.784Z,1002.94
2018-12-21T01:56:46.775Z,1002.93
2018-12-21T01:57:46.768Z,1002.95
2018-12-21T01:58:46.759Z,1002.92
2018-12-21T01:59:46.753Z,1002.90
2018-12-21T02:00:46.748Z,1002.87
2018-12-21T02:01:46.737Z,1002.88
2018-12-21T02:02:46.731Z,1002.79
2018-12-21T02:03:46.723Z,1002.82
2018-12-21T02:04:46.718Z,1002.76
2018-12-21T02:05:46.706Z,1002.78
2018-12-21T02:06:46.698Z,1002.75
2018-12-21T02:07:46.693Z,1002.74
2018-12-21T02:08:46.682Z,1002.73
2018-12-21T02:09:46.676Z,1002.70
2018-12-21T02:10:46.666Z,1002.72
2018-12-21T02:11:46.661Z,1002.68
2018-12-21T02:12:46.654Z,1002.65
2018-12-21T02:13:46.644Z,1002.65
2018-12-21T02:14:46.639Z,1002.58
2018-12-21T02:15:46.630Z,1002.51
2018-12-21T02:16:46.622Z,1002.53
2018-12-21T02:17:46.615Z,1002.55
2018-12-21T02:18:46.604Z,1002.49
2018-12-21T02:19:46.600Z,1002.45
2018-12-21T02:20:46.590Z,1002.54
2018-12-21T02:21:46.584Z,1002.49
2018-12-21T02:22:46.574Z,1002.54
2018-12-21T02:23:46.570Z,1002.53
2018-12-21T02:24:46.560Z,1002.49
2018-12-21T02:25:46.557Z,1002.51
2018-12-21T02:26:46.544Z,1002.51
2018-12-21T02:27:46.839Z,1002.47
2018-12-21T02:28:46.529Z,1002.44
2018-12-21T02:29:46.523Z,1002.42
2018-12-21T02:30:46.514Z,1002.38
2018-12-21T02:31:46.509Z,1002.36
2018-12-21T02:32:46.499Z,1002.31
2018-12-21T02:33:46.493Z,1002.31
2018-12-21T02:34:46.484Z,1002.31
2018-12-21T02:35:46.478Z,1002.36
2018-12-21T02:36:46.479Z,1002.32
2018-12-21T02:37:46.466Z,1002.29
2018-12-21T02:38:46.452Z,1002.31
2018-12-21T02:39:46.449Z,1002.33
2018-12-21T02:40:46.439Z,1002.33
2018-12-21T02:41:46.431Z,1002.32
2018-12-21T02:42:46.421Z,1002.32
2018-12-21T02:43:46.424Z,1002.34
2018-12-21T02:44:46.424Z,1002.33
2018-12-21T02:45:46.400Z,1002.34
2018-12-21T02:46:46.391Z,1002.34
2018-12-21T02:47:46.387Z,1002.33
2018-12-21T02:48:46.377Z,1002.27
2018-12-21T02:49:46.371Z,1002.29
2018-12-21T02:50:46.360Z,1002.29
2018-12-21T02:51:46.355Z,1002.27
2018-12-21T02:52:46.347Z,1002.34
2018-12-21T02:53:46.340Z,1002.36
2018-12-21T02:54:46.331Z,1002.34
2018-12-21T02:55:46.325Z,1002.30
2018-12-21T02:56:46.315Z,1002.35
2018-12-21T02:57:46.611Z,1002.32
2018-12-21T02:58:46.300Z,1002.26
2018-12-21T02:59:46.296Z,1002.24
2018-12-21T03:00:46.285Z,1002.26
2018-12-21T03:01:46.280Z,1002.26
2018-12-21T03:02:46.272Z,1002.20
2018-12-21T03:03:46.265Z,1002.19
2018-12-21T03:04:46.257Z,1002.21
2018-12-21T03:05:46.251Z,1002.13
2018-12-21T03:06:46.241Z,1002.12
2018-12-21T03:07:46.235Z,1002.13
2018-12-21T03:08:46.226Z,1002.13
2018-12-21T03:09:46.221Z,1002.10
2018-12-21T03:10:46.213Z,1002.07
2018-12-21T03:11:46.208Z,1002.05
2018-12-21T03:12:46.195Z,1002.03
2018-12-21T03:13:46.190Z,1002.08
2018-12-21T03:14:46.180Z,1002.06
2018-12-21T03:15:46.176Z,1002.09
2018-12-21T03:16:46.166Z,1002.02
2018-12-21T03:17:46.162Z,1001.95
2018-12-21T03:18:46.153Z,1001.90
2018-12-21T03:19:46.147Z,1001.88
2018-12-21T03:20:46.140Z,1001.80
2018-12-21T03:21:46.131Z,1001.81
2018-12-21T03:22:46.125Z,1001.74
2018-12-21T03:23:46.118Z,1001.81
2018-12-21T03:24:46.108Z,1001.70
2018-12-21T03:25:46.101Z,1001.68
2018-12-21T03:26:46.093Z,1001.63
2018-12-21T03:27:46.089Z,1001.66
2018-12-21T03:28:46.328Z,1001.62
2018-12-21T03:29:46.170Z,1001.58
2018-12-21T03:30:46.065Z,1001.55
2018-12-21T03:31:46.060Z,1001.52
2018-12-21T03:32:46.051Z,1001.48
2018-12-21T03:33:46.047Z,1001.46
2018-12-21T03:34:46.037Z,1001.44
2018-12-21T03:35:46.033Z,1001.39
2018-12-21T03:36:46.022Z,1001.43
2018-12-21T03:37:46.015Z,1001.40
2018-12-21T03:38:46.038Z,1001.32
2018-12-21T03:39:46.002Z,1001.35
2018-12-21T03:40:46.023Z,1001.30
2018-12-21T03:41:45.986Z,1001.33
2018-12-21T03:42:45.978Z,1001.23
2018-12-21T03:43:45.976Z,1001.12
2018-12-21T03:44:45.962Z,1001.12
2018-12-21T03:45:45.957Z,1001.02
2018-12-21T03:46:45.946Z,1000.94
2018-12-21T03:47:45.942Z,1000.93
2018-12-21T03:48:45.933Z,1000.85
2018-12-21T03:49:45.932Z,1000.83
2018-12-21T03:50:45.917Z,1000.83
2018-12-21T03:51:45.914Z,1000.82
2018-12-21T03:52:45.907Z,1000.82
2018-12-21T03:53:45.904Z,1000.81
2018-12-21T03:54:45.888Z,1000.82
2018-12-21T03:55:45.884Z,1000.81
2018-12-21T03:56:45.875Z,1000.73
2018-12-21T03:57:45.890Z,1000.74
2018-12-21T03:58:45.859Z,1000.69
2018-12-21T03:59:45.854Z,1000.68
2018-12-21T04:00:45.845Z,1000.68
2018-12-21T04:01:45.839Z,1000.67
2018-12-21T04:02:45.831Z,1000.63
2018-12-21T04:03:45.827Z,1000.65
2018-12-21T04:04:45.817Z,1000.65
2018-12-21T04:05:45.810Z,1000.66
2018-12-21T04:06:45.801Z,1000.62
2018-12-21T04:07:45.807Z,1000.66
2018-12-21T04:08:45.787Z,1000.62
2018-12-21T04:09:45.781Z,1000.58
2018-12-21T04:10:45.778Z,1000.59
2018-12-21T04:11:45.766Z,1000.57
2018-12-21T04:12:45.757Z,1000.53
2018-12-21T04:13:45.751Z,1000.53
2018-12-21T04:14:45.742Z,1000.50
2018-12-21T04:15:45.737Z,1000.51
2018-12-21T04:16:45.729Z,1000.47
2018-12-21T04:17:45.726Z,1000.46
2018-12-21T04:18:45.714Z,1000.45
2018-12-21T04:19:45.707Z,1000.38
2018-12-21T04:20:45.698Z,1000.31
2018-12-21T04:21:45.693Z,1000.28
2018-12-21T04:22:45.684Z,1000.24
2018-12-21T04:23:45.678Z,1000.21
2018-12-21T04:24:45.669Z,1000.21
2018-12-21T04:25:45.663Z,1000.22
2018-12-21T04:26:45.654Z,1000.14
2018-12-21T04:27:45.646Z,1000.15
2018-12-21T04:28:45.641Z,1000.19
2018-12-21T04:29:45.632Z,1000.15
2018-12-21T04:30:45.643Z,1000.15
2018-12-21T04:31:45.620Z,1000.18
2018-12-21T04:32:45.611Z,1000.20
2018-12-21T04:33:45.608Z,1000.10
2018-12-21T04:34:45.612Z,1000.11
2018-12-21T04:35:45.590Z,1000.10
2018-12-21T04:36:45.582Z,1000.08
2018-12-21T04:37:45.572Z,1000.05
2018-12-21T04:38:45.568Z,1000.01
2018-12-21T04:39:45.559Z,1000.05
2018-12-21T04:40:45.558Z,1000.05
2018-12-21T04:41:45.552Z,1000.00
2018-12-21T04:42:45.543Z,999.96
2018-12-21T04:43:45.529Z,999.95
2018-12-21T04:44:45.523Z,999.89
2018-12-21T04:45:45.514Z,999.88
2018-12-21T04:46:45.510Z,999.90
2018-12-21T04:47:45.500Z,999.89
2018-12-21T04:48:45.494Z,999.87
2018-12-21T04:49:45.484Z,999.84
2018-12-21T04:50:45.480Z,999.81
2018-12-21T04:51:45.571Z,999.81
2018-12-21T04:52:45.466Z,999.76
2018-12-21T04:53:45.455Z,999.72
2018-12-21T04:54:45.451Z,999.71
2018-12-21T04:55:45.453Z,999.70
2018-12-21T04:56:45.436Z,999.65
2018-12-21T04:57:45.426Z,999.73
2018-12-21T04:58:45.421Z,999.72
2018-12-21T04:59:45.415Z,999.70
2018-12-21T05:00:45.408Z,999.67
2018-12-21T05:01:45.397Z,999.58
2018-12-21T05:02:45.392Z,999.55
2018-12-21T05:03:45.684Z,999.56
2018-12-21T05:04:45.378Z,999.59
2018-12-21T05:05:45.371Z,999.53
2018-12-21T05:06:45.364Z,999.42
2018-12-21T05:07:45.354Z,999.45
2018-12-21T05:08:45.349Z,999.39
2018-12-21T05:09:45.341Z,999.35
2018-12-21T05:10:45.334Z,999.39
2018-12-21T05:11:45.325Z,999.28
2018-12-21T05:12:45.320Z,999.30
2018-12-21T05:13:45.311Z,999.37
2018-12-21T05:14:45.308Z,999.34
2018-12-21T05:15:45.297Z,999.33
2018-12-21T05:16:45.295Z,999.28
2018-12-21T05:17:45.281Z,999.27
2018-12-21T05:18:45.277Z,999.27
2018-12-21T05:19:45.270Z,999.17
2018-12-21T05:20:45.263Z,999.17
2018-12-21T05:21:45.253Z,999.17
2018-12-21T05:22:52.215Z,999.11
2018-12-21T05:23:45.240Z,999.09
2018-12-21T05:24:45.235Z,999.03
2018-12-21T05:25:45.225Z,999.01
2018-12-21T05:26:45.220Z,998.97
2018-12-21T05:27:45.211Z,998.93
2018-12-21T05:28:45.207Z,998.90
2018-12-21T05:29:45.204Z,998.89
2018-12-21T05:30:45.192Z,998.90
2018-12-21T05:31:45.184Z,998.86
2018-12-21T05:32:45.180Z,998.85
2018-12-21T05:33:45.469Z,998.82
2018-12-21T05:34:45.166Z,998.85
2018-12-21T05:35:45.158Z,998.85
2018-12-21T05:36:45.150Z,998.79
2018-12-21T05:37:45.140Z,998.75
2018-12-21T05:38:45.138Z,998.75
2018-12-21T05:39:45.127Z,998.69
2018-12-21T05:40:45.124Z,998.63
2018-12-21T05:41:45.112Z,998.69
2018-12-21T05:42:45.108Z,998.60
2018-12-21T05:43:45.099Z,998.65
2018-12-21T05:44:45.095Z,998.57
2018-12-21T05:45:45.085Z,998.62
2018-12-21T05:46:45.079Z,998.56
2018-12-21T05:47:45.073Z,998.50
2018-12-21T05:48:45.066Z,998.54
2018-12-21T05:49:45.055Z,998.42
2018-12-21T05:50:45.064Z,998.38
2018-12-21T05:51:45.042Z,998.36
2018-12-21T05:52:45.037Z,998.35
2018-12-21T05:53:45.027Z,998.26
2018-12-21T05:54:45.022Z,998.30
2018-12-21T05:55:45.012Z,998.24
2018-12-21T05:56:45.007Z,998.25
2018-12-21T05:57:44.998Z,998.25
2018-12-21T05:58:44.992Z,998.27
2018-12-21T05:59:44.989Z,998.28
2018-12-21T06:00:44.978Z,998.29
2018-12-21T06:01:44.967Z,998.29
2018-12-21T06:02:44.965Z,998.25
2018-12-21T06:03:44.953Z,998.28
2018-12-21T06:04:44.948Z,998.30
2018-12-21T06:05:44.938Z,998.31
2018-12-21T06:06:44.932Z,998.23
2018-12-21T06:07:44.923Z,998.25
2018-12-21T06:08:44.919Z,998.09
2018-12-21T06:09:44.908Z,998.09
2018-12-21T06:10:44.903Z,998.09
2018-12-21T06:11:44.894Z,998.13
2018-12-21T06:12:44.888Z,998.10
2018-12-21T06:13:44.878Z,998.05
2018-12-21T06:14:44.877Z,998.07
2018-12-21T06:15:44.864Z,997.97
2018-12-21T06:16:44.925Z,997.93
2018-12-21T06:17:44.850Z,997.92
2018-12-21T06:18:44.845Z,997.86
2018-12-21T06:19:44.835Z,997.87
2018-12-21T06:20:44.830Z,997.75
2018-12-21T06:21:44.820Z,997.70
2018-12-21T06:22:44.818Z,997.61
2018-12-21T06:23:44.805Z,997.58
2018-12-21T06:24:44.802Z,997.58
2018-12-21T06:25:44.872Z,997.50
2018-12-21T06:26:44.785Z,997.36
2018-12-21T06:27:44.776Z,997.43
2018-12-21T06:28:44.772Z,997.35
2018-12-21T06:29:44.761Z,997.37
2018-12-21T06:30:44.756Z,997.38
2018-12-21T06:31:44.747Z,997.39
2018-12-21T06:32:44.744Z,997.36
2018-12-21T06:33:44.750Z,997.39
2018-12-21T06:34:44.729Z,997.35
2018-12-21T06:35:44.718Z,997.31
2018-12-21T06:36:44.713Z,997.26
2018-12-21T06:37:44.707Z,997.25
2018-12-21T06:38:44.700Z,997.24
2018-12-21T06:39:44.690Z,997.23
2018-12-21T06:40:44.691Z,997.18
2018-12-21T06:41:44.690Z,997.20
2018-12-21T06:42:44.669Z,997.26
2018-12-21T06:43:44.662Z,997.25
2018-12-21T06:44:44.655Z,997.22
2018-12-21T06:45:44.644Z,997.23
2018-12-21T06:46:44.641Z,997.22
2018-12-21T06:47:44.631Z,997.21
2018-12-21T06:48:44.626Z,997.20
2018-12-21T06:49:44.615Z,997.12
2018-12-21T06:50:44.610Z,997.14
2018-12-21T06:51:44.601Z,997.12
2018-12-21T06:52:44.595Z,997.08
2018-12-21T06:53:44.585Z,997.00
2018-12-21T06:54:44.580Z,997.01
2018-12-21T06:55:44.571Z,996.95
2018-12-21T06:56:44.566Z,997.01
2018-12-21T06:57:44.558Z,996.96
2018-12-21T06:58:44.550Z,996.95
2018-12-21T06:59:44.540Z,996.90
2018-12-21T07:00:44.535Z,996.93
2018-12-21T07:01:44.528Z,996.89
2018-12-21T07:02:44.523Z,996.87
2018-12-21T07:03:44.510Z,996.86
2018-12-21T07:04:44.506Z,996.79
2018-12-21T07:05:44.495Z,996.91
2018-12-21T07:06:44.490Z,996.91
2018-12-21T07:07:44.480Z,996.81
2018-12-21T07:08:44.475Z,996.79
2018-12-21T07:09:44.464Z,996.72
2018-12-21T07:10:44.459Z,996.65
2018-12-21T07:11:44.450Z,996.63
2018-12-21T07:12:44.444Z,996.63
2018-12-21T07:13:44.442Z,996.58
2018-12-21T07:14:44.429Z,996.54
2018-12-21T07:15:44.419Z,996.49
2018-12-21T07:16:44.414Z,996.50
2018-12-21T07:17:44.403Z,996.45
2018-12-21T07:18:44.398Z,996.45
2018-12-21T07:19:44.390Z,996.39
2018-12-21T07:20:44.383Z,996.38
2018-12-21T07:21:44.372Z,996.34
2018-12-21T07:22:44.367Z,996.34
2018-12-21T07:23:44.357Z,996.36
2018-12-21T07:24:44.353Z,996.28
2018-12-21T07:25:44.343Z,996.26
2018-12-21T07:26:44.335Z,996.26
2018-12-21T07:27:44.326Z,996.26
2018-12-21T07:28:44.320Z,996.20
2018-12-21T07:29:44.310Z,996.13
2018-12-21T07:30:44.304Z,996.11
2018-12-21T07:31:44.294Z,996.08
2018-12-21T07:32:44.290Z,995.97
2018-12-21T07:33:44.280Z,995.97
2018-12-21T07:34:44.272Z,995.88
2018-12-21T07:35:44.262Z,995.74
2018-12-21T07:36:44.257Z,995.73
2018-12-21T07:37:44.247Z,995.71
2018-12-21T07:38:44.347Z,995.73
2018-12-21T07:39:44.232Z,995.69
2018-12-21T07:40:44.228Z,995.65
2018-12-21T07:41:44.216Z,995.55
2018-12-21T07:42:44.209Z,995.50
2018-12-21T07:43:44.200Z,995.49
2018-12-21T07:44:44.194Z,995.43
2018-12-21T07:45:44.182Z,995.42
2018-12-21T07:46:44.183Z,995.43
2018-12-21T07:47:44.175Z,995.42
2018-12-21T07:48:44.162Z,995.42
2018-12-21T07:49:44.151Z,995.38
2018-12-21T07:50:44.147Z,995.36
2018-12-21T07:51:44.136Z,995.33
2018-12-21T07:52:44.130Z,995.33
2018-12-21T07:53:44.119Z,995.33
2018-12-21T07:54:44.116Z,995.32
2018-12-21T07:55:44.104Z,995.29
2018-12-21T07:56:44.100Z,995.28
2018-12-21T07:57:44.089Z,995.20
2018-12-21T07:58:44.083Z,995.16
2018-12-21T07:59:44.077Z,995.16
2018-12-21T08:00:44.068Z,995.08
2018-12-21T08:01:44.056Z,995.07
2018-12-21T08:02:44.052Z,995.07
2018-12-21T08:03:44.040Z,995.01
2018-12-21T08:04:44.036Z,994.94
2018-12-21T08:05:44.024Z,994.93
2018-12-21T08:06:44.022Z,994.88
2018-12-21T08:07:44.009Z,994.85
2018-12-21T08:08:44.004Z,994.78
2018-12-21T08:09:43.992Z,994.83
2018-12-21T08:10:43.988Z,994.78
2018-12-21T08:11:43.977Z,994.80
2018-12-21T08:12:43.972Z,994.81
2018-12-21T08:13:43.961Z,994.77
2018-12-21T08:14:43.955Z,994.80
2018-12-21T08:15:43.948Z,994.73
2018-12-21T08:16:43.940Z,994.62
2018-12-21T08:17:43.929Z,994.63
2018-12-21T08:18:43.925Z,994.54
2018-12-21T08:19:43.914Z,994.56
2018-12-21T08:20:43.909Z,994.57
2018-12-21T08:21:43.898Z,994.50
2018-12-21T08:22:43.893Z,994.54
2018-12-21T08:23:44.386Z,994.47
2018-12-21T08:24:43.878Z,994.47
2018-12-21T08:25:43.873Z,994.42
2018-12-21T08:26:43.870Z,994.36
2018-12-21T08:27:43.870Z,994.39
2018-12-21T08:28:43.848Z,994.35
2018-12-21T08:29:43.837Z,994.42
2018-12-21T08:30:43.831Z,994.40
2018-12-21T08:31:43.824Z,994.33
2018-12-21T08:32:43.819Z,994.30
2018-12-21T08:33:43.816Z,994.27
2018-12-21T08:34:43.859Z,994.27
2018-12-21T08:35:43.900Z,994.22
2018-12-21T08:36:43.787Z,994.17
2018-12-21T08:37:43.775Z,994.11
2018-12-21T08:38:43.770Z,994.14
2018-12-21T08:39:43.762Z,994.23
2018-12-21T08:40:43.759Z,994.28
2018-12-21T08:41:45.014Z,994.24
2018-12-21T08:42:43.742Z,994.28
2018-12-21T08:43:43.734Z,994.22
2018-12-21T08:44:43.734Z,994.15
2018-12-21T08:45:43.718Z,994.13
2018-12-21T08:46:43.713Z,994.08
2018-12-21T08:47:43.703Z,994.09
2018-12-21T08:48:43.694Z,994.09
2018-12-21T08:49:43.688Z,994.03
2018-12-21T08:50:43.678Z,994.06
2018-12-21T08:51:43.674Z,994.05
2018-12-21T08:52:43.664Z,994.00
2018-12-21T08:53:43.658Z,994.02
2018-12-21T08:54:43.649Z,994.05
2018-12-21T08:55:43.644Z,994.00
2018-12-21T08:56:43.638Z,993.98
2018-12-21T08:57:43.628Z,993.94
2018-12-21T08:58:43.621Z,993.93
2018-12-21T08:59:43.614Z,993.91
2018-12-21T09:00:43.604Z,993.85
2018-12-21T09:01:43.599Z,993.79
2018-12-21T09:02:43.593Z,993.74
2018-12-21T09:03:43.584Z,993.71
2018-12-21T09:04:43.574Z,993.66
2018-12-21T09:05:43.568Z,993.66
2018-12-21T09:06:43.559Z,993.65
2018-12-21T09:07:43.555Z,993.65
2018-12-21T09:08:43.545Z,993.64
2018-12-21T09:09:43.542Z,993.59
2018-12-21T09:10:43.529Z,993.53
2018-12-21T09:11:43.524Z,993.50
2018-12-21T09:12:43.515Z,993.50
2018-12-21T09:13:43.509Z,993.47
2018-12-21T09:14:43.503Z,993.38
2018-12-21T09:15:43.500Z,993.43
2018-12-21T09:16:43.485Z,993.44
2018-12-21T09:17:43.481Z,993.47
2018-12-21T09:18:43.471Z,993.39
2018-12-21T09:19:43.468Z,993.37
2018-12-21T09:20:43.457Z,993.29
2018-12-21T09:21:43.450Z,993.24
2018-12-21T09:22:43.442Z,993.22
2018-12-21T09:23:43.436Z,993.21
2018-12-21T09:24:43.426Z,993.22
2018-12-21T09:25:43.420Z,993.13
2018-12-21T09:26:43.411Z,993.12
2018-12-21T09:27:43.406Z,993.14
2018-12-21T09:28:43.396Z,993.06
2018-12-21T09:29:43.391Z,993.15
2018-12-21T09:30:43.381Z,993.01
2018-12-21T09:31:43.377Z,993.04
2018-12-21T09:32:43.367Z,993.02
2018-12-21T09:33:43.361Z,993.05
2018-12-21T09:34:43.352Z,992.97
2018-12-21T09:35:43.347Z,992.99
2018-12-21T09:36:43.348Z,992.94
2018-12-21T09:37:43.331Z,992.94
2018-12-21T09:38:43.331Z,992.94
2018-12-21T09:39:43.317Z,992.96
2018-12-21T09:40:43.309Z,992.85
2018-12-21T09:41:43.301Z,992.84
2018-12-21T09:42:43.293Z,992.83
2018-12-21T09:43:43.287Z,992.80
2018-12-21T09:44:43.278Z,992.80
2018-12-21T09:45:43.272Z,992.74
2018-12-21T09:46:43.262Z,992.69
2018-12-21T09:47:43.260Z,992.72
2018-12-21T09:48:43.247Z,992.68
2018-12-21T09:49:43.241Z,992.61
2018-12-21T09:50:43.233Z,992.62
2018-12-21T09:51:45.325Z,992.58
2018-12-21T09:52:43.218Z,992.60
2018-12-21T09:53:43.211Z,992.54
2018-12-21T09:54:43.202Z,992.49
2018-12-21T09:55:43.198Z,992.47
2018-12-21T09:56:43.188Z,992.43
2018-12-21T09:57:43.181Z,992.31
2018-12-21T09:58:43.172Z,992.30
2018-12-21T09:59:43.175Z,992.25
2018-12-21T10:00:43.158Z,992.24
2018-12-21T10:01:43.152Z,992.20
2018-12-21T10:02:43.142Z,992.14
2018-12-21T10:03:43.138Z,992.18
2018-12-21T10:04:43.129Z,992.14
2018-12-21T10:05:43.122Z,992.14
2018-12-21T10:06:43.113Z,992.05
2018-12-21T10:07:43.109Z,992.05
2018-12-21T10:08:43.100Z,992.02
2018-12-21T10:09:43.095Z,992.04
2018-12-21T10:10:43.084Z,991.99
2018-12-21T10:11:43.079Z,991.88
2018-12-21T10:12:43.070Z,991.97
2018-12-21T10:13:43.064Z,991.95
2018-12-21T10:14:43.054Z,991.89
2018-12-21T10:15:43.051Z,991.86
2018-12-21T10:16:43.043Z,991.88
2018-12-21T10:17:43.035Z,991.85
2018-12-21T10:18:43.026Z,991.82
2018-12-21T10:19:43.021Z,991.84
2018-12-21T10:20:43.013Z,991.77
2018-12-21T10:21:43.006Z,991.73
2018-12-21T10:22:42.997Z,991.74
2018-12-21T10:23:42.999Z,991.70
2018-12-21T10:24:42.994Z,991.65
2018-12-21T10:25:42.988Z,991.67
2018-12-21T10:26:42.972Z,991.69
2018-12-21T10:27:42.963Z,991.72
2018-12-21T10:28:42.954Z,991.63
2018-12-21T10:29:42.949Z,991.59
2018-12-21T10:30:42.939Z,991.61
2018-12-21T10:31:42.944Z,991.54
2018-12-21T10:32:42.941Z,991.57
2018-12-21T10:33:42.919Z,991.47
2018-12-21T10:34:42.910Z,991.45
2018-12-21T10:35:42.906Z,991.44
2018-12-21T10:36:42.897Z,991.51
2018-12-21T10:37:42.892Z,991.52
2018-12-21T10:38:42.882Z,991.37
2018-12-21T10:39:42.877Z,991.46
2018-12-21T10:40:42.868Z,991.42
2018-12-21T10:41:42.863Z,991.34
2018-12-21T10:42:42.855Z,991.33
2018-12-21T10:43:42.849Z,991.29
2018-12-21T10:44:42.839Z,991.22
2018-12-21T10:45:42.834Z,991.26
2018-12-21T10:46:42.826Z,991.16
2018-12-21T10:47:42.821Z,991.22
2018-12-21T10:48:42.810Z,991.31
2018-12-21T10:49:42.806Z,991.30
2018-12-21T10:50:42.800Z,991.34
2018-12-21T10:51:42.792Z,991.21
2018-12-21T10:52:42.783Z,991.12
2018-12-21T10:53:46.570Z,991.13
2018-12-21T10:54:42.768Z,991.11
2018-12-21T10:55:42.763Z,991.14
2018-12-21T10:56:42.754Z,991.01
2018-12-21T10:57:42.749Z,991.09
2018-12-21T10:58:42.740Z,990.86
2018-12-21T10:59:43.566Z,990.87
2018-12-21T11:00:42.731Z,990.88
2018-12-21T11:01:42.722Z,991.07
2018-12-21T11:02:42.713Z,991.15
2018-12-21T11:03:42.707Z,990.95
2018-12-21T11:04:42.699Z,991.04
2018-12-21T11:05:42.693Z,990.99
2018-12-21T11:06:42.683Z,990.92
2018-12-21T11:07:42.679Z,990.89
2018-12-21T11:08:42.670Z,990.98
2018-12-21T11:09:42.665Z,991.03
2018-12-21T11:10:42.656Z,990.99
2018-12-21T11:11:42.651Z,990.97
2018-12-21T11:12:42.642Z,990.92
2018-12-21T11:13:42.636Z,990.85
2018-12-21T11:14:42.628Z,990.97
2018-12-21T11:15:42.623Z,990.82
2018-12-21T11:16:42.615Z,990.82
2018-12-21T11:17:43.959Z,990.88
2018-12-21T11:18:42.600Z,990.72
2018-12-21T11:19:42.596Z,990.85
2018-12-21T11:20:42.586Z,990.82
2018-12-21T11:21:42.582Z,990.79
2018-12-21T11:22:42.573Z,990.68
2018-12-21T11:23:42.568Z,990.81
2018-12-21T11:24:42.560Z,990.74
2018-12-21T11:25:42.558Z,990.65
2018-12-21T11:26:42.546Z,990.65
2018-12-21T11:27:42.543Z,990.64
2018-12-21T11:28:42.537Z,990.64
2018-12-21T11:29:42.527Z,990.65
2018-12-21T11:30:42.519Z,990.69
2018-12-21T11:31:42.514Z,990.66
2018-12-21T11:32:42.506Z,990.63
2018-12-21T11:33:42.514Z,990.67
2018-12-21T11:34:42.492Z,990.63
2018-12-21T11:35:42.493Z,990.56
2018-12-21T11:36:42.479Z,990.57
2018-12-21T11:37:42.474Z,990.59
2018-12-21T11:38:42.465Z,990.58
2018-12-21T11:39:42.464Z,990.55
2018-12-21T11:40:42.559Z,990.59
2018-12-21T11:41:42.448Z,990.60
2018-12-21T11:42:42.441Z,990.60
2018-12-21T11:43:42.440Z,990.55
2018-12-21T11:44:42.429Z,990.53
2018-12-21T11:45:42.428Z,990.54
2018-12-21T11:46:42.513Z,990.51
2018-12-21T11:47:42.413Z,990.46
2018-12-21T11:48:42.401Z,990.38
2018-12-21T11:49:42.396Z,990.46
2018-12-21T11:50:42.395Z,990.45
2018-12-21T11:51:42.384Z,990.35
2018-12-21T11:52:42.376Z,990.28
2018-12-21T11:53:42.466Z,990.48
2018-12-21T11:54:44.410Z,990.39
2018-12-21T11:55:42.359Z,990.44
2018-12-21T11:56:42.352Z,990.34
2018-12-21T11:57:42.345Z,990.36
2018-12-21T11:58:42.338Z,990.34
2018-12-21T11:59:45.070Z,990.34
2018-12-21T12:00:42.341Z,990.36
2018-12-21T12:01:42.326Z,990.32
2018-12-21T12:02:42.311Z,990.38
2018-12-21T12:03:42.308Z,990.36
2018-12-21T12:04:42.299Z,990.30
2018-12-21T12:05:42.294Z,990.31
2018-12-21T12:06:42.303Z,990.38
2018-12-21T12:07:42.282Z,990.39
2018-12-21T12:08:42.275Z,990.36
2018-12-21T12:09:42.269Z,990.37
2018-12-21T12:10:42.263Z,990.34
2018-12-21T12:11:42.258Z,990.41
2018-12-21T12:12:42.253Z,990.25
2018-12-21T12:13:42.244Z,990.37
2018-12-21T12:14:42.237Z,990.30
2018-12-21T12:15:42.233Z,990.34
2018-12-21T12:16:42.225Z,990.32
2018-12-21T12:17:42.220Z,990.31
2018-12-21T12:18:42.217Z,990.27
2018-12-21T12:19:42.208Z,990.30